sensor_id;sensor_type;location;lat;lon;timestamp;pressure;altitude;pressure_sealevel;temperature;humidity
72896;BME280;61036;53.224;6.554;2023-06-24T00:00:01;102422.81;;;22.17;100.00
72896;BME280;61036;53.224;6.554;2023-06-24T00:02:26;102427.16;;;22.19;100.00
72896;BME280;61036;53.224;6.554;2023-06-24T00:04:52;102430.34;;;22.14;100.00
72896;BME280;61036;53.224;6.554;2023-06-24T00:07:17;102430.66;;;22.11;100.00
72896;BME280;61036;53.224;6.554;2023-06-24T00:09:43;102428.44;;;21.87;100.00
72896;BME280;61036;53.224;6.554;2023-06-24T00:12:08;102429.13;;;21.89;100.00
72896;BME280;61036;53.224;6.554;2023-06-24T00:14:34;102425.44;;;22.08;100.00
72896;BME280;61036;53.224;6.554;2023-06-24T00:17:02;102427.34;;;21.98;100.00
72896;BME280;61036;53.224;6.554;2023-06-24T00:19:27;102430.09;;;21.98;100.00
72896;BME280;61036;53.224;6.554;2023-06-24T00:21:53;102426.69;;;22.14;100.00
72896;BME280;61036;53.224;6.554;2023-06-24T00:24:20;102428.88;;;21.83;100.00
72896;BME280;61036;53.224;6.554;2023-06-24T00:26:48;102427.16;;;21.82;100.00
72896;BME280;61036;53.224;6.554;2023-06-24T00:29:14;102432.47;;;21.83;100.00
72896;BME280;61036;53.224;6.554;2023-06-24T00:31:41;102433.03;;;21.97;100.00
72896;BME280;61036;53.224;6.554;2023-06-24T00:34:07;102436.56;;;21.79;100.00
72896;BME280;61036;53.224;6.554;2023-06-24T00:36:33;102437.28;;;21.72;100.00
72896;BME280;61036;53.224;6.554;2023-06-24T00:39:00;102430.50;;;21.76;100.00
72896;BME280;61036;53.224;6.554;2023-06-24T00:41:27;102430.97;;;21.99;100.00
72896;BME280;61036;53.224;6.554;2023-06-24T00:43:53;102434.00;;;21.96;100.00
72896;BME280;61036;53.224;6.554;2023-06-24T00:46:18;102427.44;;;21.79;100.00
72896;BME280;61036;53.224;6.554;2023-06-24T00:48:45;102427.97;;;21.55;100.00
72896;BME280;61036;53.224;6.554;2023-06-24T00:51:10;102434.41;;;21.73;100.00
72896;BME280;61036;53.224;6.554;2023-06-24T00:53:36;102428.75;;;21.75;100.00
72896;BME280;61036;53.224;6.554;2023-06-24T00:56:02;102423.34;;;21.92;100.00
72896;BME280;61036;53.224;6.554;2023-06-24T00:58:29;102427.53;;;21.87;100.00
72896;BME280;61036;53.224;6.554;2023-06-24T01:00:57;102413.88;;;22.05;100.00
72896;BME280;61036;53.224;6.554;2023-06-24T01:03:24;102431.09;;;22.07;100.00
72896;BME280;61036;53.224;6.554;2023-06-24T01:05:53;102428.31;;;22.17;100.00
72896;BME280;61036;53.224;6.554;2023-06-24T01:08:19;102418.56;;;21.95;100.00
72896;BME280;61036;53.224;6.554;2023-06-24T01:10:49;102416.59;;;22.14;100.00
72896;BME280;61036;53.224;6.554;2023-06-24T01:13:17;102412.41;;;21.83;100.00
72896;BME280;61036;53.224;6.554;2023-06-24T01:15:43;102421.41;;;21.75;100.00
72896;BME280;61036;53.224;6.554;2023-06-24T01:23:47;102424.16;;;21.75;100.00
72896;BME280;61036;53.224;6.554;2023-06-24T01:29:42;102412.56;;;21.81;100.00
72896;BME280;61036;53.224;6.554;2023-06-24T01:32:27;102410.94;;;22.16;100.00
72896;BME280;61036;53.224;6.554;2023-06-24T01:35:07;102406.47;;;22.15;100.00
72896;BME280;61036;53.224;6.554;2023-06-24T01:37:41;102404.38;;;21.99;100.00
72896;BME280;61036;53.224;6.554;2023-06-24T01:42:42;102404.09;;;22.02;100.00
72896;BME280;61036;53.224;6.554;2023-06-24T01:45:26;102404.00;;;22.22;100.00
72896;BME280;61036;53.224;6.554;2023-06-24T01:48:01;102397.63;;;21.94;100.00
72896;BME280;61036;53.224;6.554;2023-06-24T01:50:31;102399.16;;;22.06;100.00
72896;BME280;61036;53.224;6.554;2023-06-24T01:52:58;102403.53;;;21.89;100.00
72896;BME280;61036;53.224;6.554;2023-06-24T01:55:28;102396.28;;;21.98;100.00
72896;BME280;61036;53.224;6.554;2023-06-24T01:57:55;102400.44;;;22.02;100.00
72896;BME280;61036;53.224;6.554;2023-06-24T02:00:23;102401.53;;;21.91;100.00
72896;BME280;61036;53.224;6.554;2023-06-24T02:02:50;102388.19;;;21.96;100.00
72896;BME280;61036;53.224;6.554;2023-06-24T02:05:18;102389.94;;;21.97;100.00
72896;BME280;61036;53.224;6.554;2023-06-24T02:07:48;102390.47;;;21.73;100.00
72896;BME280;61036;53.224;6.554;2023-06-24T02:10:16;102391.25;;;21.56;100.00
72896;BME280;61036;53.224;6.554;2023-06-24T02:12:45;102388.84;;;21.80;100.00
72896;BME280;61036;53.224;6.554;2023-06-24T02:15:12;102377.53;;;21.56;100.00
72896;BME280;61036;53.224;6.554;2023-06-24T02:17:39;102380.78;;;21.69;100.00
72896;BME280;61036;53.224;6.554;2023-06-24T02:20:07;102383.09;;;21.74;100.00
72896;BME280;61036;53.224;6.554;2023-06-24T02:22:37;102383.94;;;21.74;100.00
72896;BME280;61036;53.224;6.554;2023-06-24T02:25:05;102383.53;;;21.69;100.00
72896;BME280;61036;53.224;6.554;2023-06-24T02:27:33;102375.25;;;21.51;100.00
72896;BME280;61036;53.224;6.554;2023-06-24T02:30:00;102369.75;;;21.51;100.00
72896;BME280;61036;53.224;6.554;2023-06-24T02:32:25;102379.09;;;21.58;100.00
72896;BME280;61036;53.224;6.554;2023-06-24T02:34:52;102380.22;;;21.75;100.00
72896;BME280;61036;53.224;6.554;2023-06-24T02:37:17;102372.66;;;21.77;100.00
72896;BME280;61036;53.224;6.554;2023-06-24T02:39:43;102378.28;;;21.85;100.00
72896;BME280;61036;53.224;6.554;2023-06-24T02:42:10;102377.72;;;21.82;100.00
72896;BME280;61036;53.224;6.554;2023-06-24T02:44:38;102372.31;;;21.90;100.00
72896;BME280;61036;53.224;6.554;2023-06-24T02:47:07;102369.00;;;21.86;100.00
72896;BME280;61036;53.224;6.554;2023-06-24T02:49:35;102370.91;;;21.86;100.00
72896;BME280;61036;53.224;6.554;2023-06-24T02:52:03;102370.88;;;21.58;100.00
72896;BME280;61036;53.224;6.554;2023-06-24T02:54:30;102369.50;;;21.72;100.00
72896;BME280;61036;53.224;6.554;2023-06-24T02:57:15;102371.91;;;21.85;100.00
72896;BME280;61036;53.224;6.554;2023-06-24T03:00:03;102376.19;;;21.97;100.00
72896;BME280;61036;53.224;6.554;2023-06-24T03:02:43;102371.06;;;21.84;100.00
72896;BME280;61036;53.224;6.554;2023-06-24T03:05:10;102375.66;;;21.84;100.00
72896;BME280;61036;53.224;6.554;2023-06-24T03:07:37;102378.41;;;21.84;100.00
72896;BME280;61036;53.224;6.554;2023-06-24T03:10:04;102372.16;;;21.91;100.00
72896;BME280;61036;53.224;6.554;2023-06-24T03:12:32;102373.16;;;22.00;100.00
72896;BME280;61036;53.224;6.554;2023-06-24T03:14:58;102373.94;;;21.83;100.00
72896;BME280;61036;53.224;6.554;2023-06-24T03:17:27;102372.59;;;21.97;100.00
72896;BME280;61036;53.224;6.554;2023-06-24T03:19:52;102375.47;;;21.95;100.00
72896;BME280;61036;53.224;6.554;2023-06-24T03:22:19;102374.97;;;21.82;100.00
72896;BME280;61036;53.224;6.554;2023-06-24T03:24:50;102376.09;;;21.89;100.00
72896;BME280;61036;53.224;6.554;2023-06-24T03:27:17;102382.38;;;21.72;100.00
72896;BME280;61036;53.224;6.554;2023-06-24T03:29:43;102379.72;;;21.52;100.00
72896;BME280;61036;53.224;6.554;2023-06-24T03:32:11;102376.56;;;21.37;100.00
72896;BME280;61036;53.224;6.554;2023-06-24T03:34:37;102376.84;;;21.15;100.00
72896;BME280;61036;53.224;6.554;2023-06-24T03:37:03;102370.91;;;21.29;100.00
72896;BME280;61036;53.224;6.554;2023-06-24T03:39:30;102380.78;;;21.02;100.00
72896;BME280;61036;53.224;6.554;2023-06-24T03:41:56;102378.03;;;21.22;100.00
72896;BME280;61036;53.224;6.554;2023-06-24T03:44:21;102376.56;;;21.37;100.00
72896;BME280;61036;53.224;6.554;2023-06-24T03:46:47;102369.25;;;21.65;100.00
72896;BME280;61036;53.224;6.554;2023-06-24T03:49:12;102378.56;;;21.35;100.00
72896;BME280;61036;53.224;6.554;2023-06-24T03:51:41;102377.69;;;21.35;100.00
72896;BME280;61036;53.224;6.554;2023-06-24T03:54:08;102385.75;;;21.56;100.00
72896;BME280;61036;53.224;6.554;2023-06-24T03:56:33;102377.13;;;21.31;100.00
72896;BME280;61036;53.224;6.554;2023-06-24T03:58:59;102376.41;;;21.29;100.00
72896;BME280;61036;53.224;6.554;2023-06-24T04:01:25;102375.88;;;21.16;100.00
72896;BME280;61036;53.224;6.554;2023-06-24T04:03:51;102384.03;;;21.45;100.00
72896;BME280;61036;53.224;6.554;2023-06-24T04:06:16;102375.09;;;21.23;100.00
72896;BME280;61036;53.224;6.554;2023-06-24T04:08:42;102381.75;;;21.31;100.00
72896;BME280;61036;53.224;6.554;2023-06-24T04:11:08;102371.94;;;21.38;100.00
72896;BME280;61036;53.224;6.554;2023-06-24T04:13:35;102384.16;;;21.53;100.00
72896;BME280;61036;53.224;6.554;2023-06-24T04:16:00;102382.97;;;21.65;100.00
72896;BME280;61036;53.224;6.554;2023-06-24T04:18:26;102390.53;;;21.91;100.00
72896;BME280;61036;53.224;6.554;2023-06-24T04:20:53;102392.59;;;21.79;100.00
72896;BME280;61036;53.224;6.554;2023-06-24T04:23:19;102397.69;;;21.74;100.00
72896;BME280;61036;53.224;6.554;2023-06-24T04:25:44;102393.91;;;21.28;100.00
72896;BME280;61036;53.224;6.554;2023-06-24T04:28:10;102397.81;;;21.82;100.00
72896;BME280;61036;53.224;6.554;2023-06-24T04:30:36;102398.22;;;21.87;100.00
72896;BME280;61036;53.224;6.554;2023-06-24T04:33:04;102393.97;;;21.93;100.00
72896;BME280;61036;53.224;6.554;2023-06-24T04:35:30;102405.59;;;22.14;100.00
72896;BME280;61036;53.224;6.554;2023-06-24T04:37:56;102402.81;;;21.87;100.00
72896;BME280;61036;53.224;6.554;2023-06-24T04:40:23;102399.75;;;22.00;100.00
72896;BME280;61036;53.224;6.554;2023-06-24T04:42:48;102402.53;;;22.27;100.00
72896;BME280;61036;53.224;6.554;2023-06-24T04:45:14;102402.94;;;22.50;100.00
72896;BME280;61036;53.224;6.554;2023-06-24T04:47:40;102406.00;;;22.47;100.00
72896;BME280;61036;53.224;6.554;2023-06-24T04:50:06;102399.81;;;22.63;100.00
72896;BME280;61036;53.224;6.554;2023-06-24T04:52:35;102395.91;;;22.66;100.00
72896;BME280;61036;53.224;6.554;2023-06-24T04:55:01;102395.16;;;22.46;100.00
72896;BME280;61036;53.224;6.554;2023-06-24T04:57:28;102397.00;;;22.73;100.00
72896;BME280;61036;53.224;6.554;2023-06-24T04:59:54;102389.28;;;22.58;100.00
72896;BME280;61036;53.224;6.554;2023-06-24T05:02:20;102403.16;;;23.28;100.00
72896;BME280;61036;53.224;6.554;2023-06-24T05:04:46;102398.22;;;23.32;100.00
72896;BME280;61036;53.224;6.554;2023-06-24T05:07:11;102407.03;;;23.62;100.00
72896;BME280;61036;53.224;6.554;2023-06-24T05:09:37;102406.44;;;23.50;100.00
72896;BME280;61036;53.224;6.554;2023-06-24T05:12:06;102398.41;;;23.91;100.00
72896;BME280;61036;53.224;6.554;2023-06-24T05:14:36;102399.00;;;24.53;100.00
72896;BME280;61036;53.224;6.554;2023-06-24T05:17:05;102388.91;;;25.27;100.00
72896;BME280;61036;53.224;6.554;2023-06-24T05:19:31;102385.16;;;24.37;100.00
72896;BME280;61036;53.224;6.554;2023-06-24T05:21:56;102392.19;;;24.23;100.00
72896;BME280;61036;53.224;6.554;2023-06-24T05:24:22;102378.91;;;23.58;100.00
72896;BME280;61036;53.224;6.554;2023-06-24T05:26:50;102370.41;;;24.62;100.00
72896;BME280;61036;53.224;6.554;2023-06-24T05:29:17;102378.25;;;24.41;100.00
72896;BME280;61036;53.224;6.554;2023-06-24T05:31:42;102382.78;;;24.50;100.00
72896;BME280;61036;53.224;6.554;2023-06-24T05:34:08;102379.69;;;24.45;100.00
72896;BME280;61036;53.224;6.554;2023-06-24T05:36:34;102370.09;;;25.23;100.00
72896;BME280;61036;53.224;6.554;2023-06-24T05:39:00;102371.63;;;24.93;100.00
72896;BME280;61036;53.224;6.554;2023-06-24T05:41:25;102376.72;;;26.48;100.00
72896;BME280;61036;53.224;6.554;2023-06-24T05:44:02;102379.25;;;25.15;100.00
72896;BME280;61036;53.224;6.554;2023-06-24T05:46:28;102376.31;;;25.00;100.00
72896;BME280;61036;53.224;6.554;2023-06-24T05:48:54;102384.91;;;24.64;100.00
72896;BME280;61036;53.224;6.554;2023-06-24T05:51:19;102376.78;;;24.04;100.00
72896;BME280;61036;53.224;6.554;2023-06-24T05:53:45;102386.66;;;23.55;100.00
72896;BME280;61036;53.224;6.554;2023-06-24T05:56:10;102383.25;;;23.61;100.00
72896;BME280;61036;53.224;6.554;2023-06-24T05:58:36;102385.75;;;23.20;100.00
72896;BME280;61036;53.224;6.554;2023-06-24T06:01:02;102382.38;;;23.60;100.00
72896;BME280;61036;53.224;6.554;2023-06-24T06:03:28;102372.84;;;24.15;100.00
72896;BME280;61036;53.224;6.554;2023-06-24T06:05:53;102387.50;;;23.55;100.00
72896;BME280;61036;53.224;6.554;2023-06-24T06:08:19;102382.63;;;24.01;100.00
72896;BME280;61036;53.224;6.554;2023-06-24T06:10:45;102386.25;;;24.60;100.00
72896;BME280;61036;53.224;6.554;2023-06-24T06:13:12;102374.44;;;24.34;100.00
72896;BME280;61036;53.224;6.554;2023-06-24T06:15:38;102376.78;;;24.87;100.00
72896;BME280;61036;53.224;6.554;2023-06-24T06:18:03;102374.06;;;25.20;100.00
72896;BME280;61036;53.224;6.554;2023-06-24T06:20:29;102383.69;;;24.75;100.00
72896;BME280;61036;53.224;6.554;2023-06-24T06:22:54;102387.69;;;24.89;100.00
72896;BME280;61036;53.224;6.554;2023-06-24T06:25:20;102388.06;;;25.19;100.00
72896;BME280;61036;53.224;6.554;2023-06-24T06:27:46;102396.81;;;25.06;100.00
72896;BME280;61036;53.224;6.554;2023-06-24T06:30:12;102393.72;;;25.01;100.00
72896;BME280;61036;53.224;6.554;2023-06-24T06:32:37;102387.81;;;25.45;100.00
72896;BME280;61036;53.224;6.554;2023-06-24T06:35:03;102384.41;;;25.10;100.00
72896;BME280;61036;53.224;6.554;2023-06-24T06:37:29;102383.38;;;24.95;100.00
72896;BME280;61036;53.224;6.554;2023-06-24T06:39:55;102383.72;;;24.92;100.00
72896;BME280;61036;53.224;6.554;2023-06-24T06:42:20;102378.13;;;25.57;100.00
72896;BME280;61036;53.224;6.554;2023-06-24T06:44:46;102378.69;;;25.36;100.00
72896;BME280;61036;53.224;6.554;2023-06-24T06:47:12;102382.31;;;25.12;100.00
72896;BME280;61036;53.224;6.554;2023-06-24T06:49:37;102385.59;;;25.24;100.00
72896;BME280;61036;53.224;6.554;2023-06-24T06:52:03;102379.50;;;25.61;100.00
72896;BME280;61036;53.224;6.554;2023-06-24T06:54:29;102384.25;;;26.00;100.00
72896;BME280;61036;53.224;6.554;2023-06-24T06:56:54;102383.34;;;25.11;100.00
72896;BME280;61036;53.224;6.554;2023-06-24T06:59:21;102376.44;;;26.35;100.00
72896;BME280;61036;53.224;6.554;2023-06-24T07:01:46;102375.59;;;26.03;100.00
72896;BME280;61036;53.224;6.554;2023-06-24T07:04:12;102384.13;;;25.69;100.00
72896;BME280;61036;53.224;6.554;2023-06-24T07:06:37;102384.34;;;26.15;100.00
72896;BME280;61036;53.224;6.554;2023-06-24T07:09:03;102387.59;;;25.63;100.00
72896;BME280;61036;53.224;6.554;2023-06-24T07:11:29;102388.47;;;26.19;100.00
72896;BME280;61036;53.224;6.554;2023-06-24T07:13:54;102388.84;;;26.08;100.00
72896;BME280;61036;53.224;6.554;2023-06-24T07:16:20;102391.84;;;25.98;100.00
72896;BME280;61036;53.224;6.554;2023-06-24T07:18:45;102392.06;;;26.59;100.00
72896;BME280;61036;53.224;6.554;2023-06-24T07:21:11;102394.22;;;26.72;100.00
72896;BME280;61036;53.224;6.554;2023-06-24T07:23:37;102387.94;;;26.55;100.00
72896;BME280;61036;53.224;6.554;2023-06-24T07:26:02;102394.41;;;26.70;100.00
72896;BME280;61036;53.224;6.554;2023-06-24T07:28:28;102383.56;;;26.29;100.00
72896;BME280;61036;53.224;6.554;2023-06-24T07:30:53;102388.34;;;26.35;100.00
72896;BME280;61036;53.224;6.554;2023-06-24T07:33:19;102383.56;;;27.06;100.00
72896;BME280;61036;53.224;6.554;2023-06-24T07:35:44;102395.16;;;26.87;100.00
72896;BME280;61036;53.224;6.554;2023-06-24T07:38:10;102400.22;;;26.98;100.00
72896;BME280;61036;53.224;6.554;2023-06-24T07:40:35;102394.06;;;27.49;100.00
72896;BME280;61036;53.224;6.554;2023-06-24T07:43:01;102385.84;;;27.55;100.00
72896;BME280;61036;53.224;6.554;2023-06-24T07:45:27;102383.34;;;27.84;100.00
72896;BME280;61036;53.224;6.554;2023-06-24T07:47:52;102383.06;;;28.44;100.00
72896;BME280;61036;53.224;6.554;2023-06-24T07:50:18;102383.63;;;28.25;100.00
72896;BME280;61036;53.224;6.554;2023-06-24T07:52:44;102381.38;;;27.40;100.00
72896;BME280;61036;53.224;6.554;2023-06-24T07:55:10;102384.25;;;28.06;100.00
72896;BME280;61036;53.224;6.554;2023-06-24T07:57:36;102384.66;;;28.02;100.00
72896;BME280;61036;53.224;6.554;2023-06-24T08:00:02;102376.25;;;28.90;96.25
72896;BME280;61036;53.224;6.554;2023-06-24T08:02:38;102375.91;;;29.49;94.10
72896;BME280;61036;53.224;6.554;2023-06-24T08:05:04;102374.16;;;28.70;94.62
72896;BME280;61036;53.224;6.554;2023-06-24T08:07:30;102367.97;;;28.97;95.26
72896;BME280;61036;53.224;6.554;2023-06-24T08:09:55;102364.59;;;29.23;92.94
72896;BME280;61036;53.224;6.554;2023-06-24T08:12:21;102365.91;;;29.27;91.49
72896;BME280;61036;53.224;6.554;2023-06-24T08:14:47;102366.66;;;29.70;89.22
72896;BME280;61036;53.224;6.554;2023-06-24T08:17:12;102372.31;;;29.55;89.42
72896;BME280;61036;53.224;6.554;2023-06-24T08:19:40;102373.53;;;29.18;89.49
72896;BME280;61036;53.224;6.554;2023-06-24T08:22:06;102371.84;;;28.74;90.74
72896;BME280;61036;53.224;6.554;2023-06-24T08:24:32;102372.91;;;28.94;93.78
72896;BME280;61036;53.224;6.554;2023-06-24T08:26:57;102372.75;;;28.81;91.26
72896;BME280;61036;53.224;6.554;2023-06-24T08:29:23;102377.94;;;29.34;89.88
72896;BME280;61036;53.224;6.554;2023-06-24T08:31:48;102377.59;;;28.36;91.59
72896;BME280;61036;53.224;6.554;2023-06-24T08:34:14;102362.13;;;29.06;88.68
72896;BME280;61036;53.224;6.554;2023-06-24T08:36:40;102368.72;;;28.62;88.60
72896;BME280;61036;53.224;6.554;2023-06-24T08:39:05;102367.56;;;29.00;89.31
72896;BME280;61036;53.224;6.554;2023-06-24T08:41:31;102364.06;;;30.03;88.65
72896;BME280;61036;53.224;6.554;2023-06-24T08:43:57;102365.59;;;30.94;82.55
72896;BME280;61036;53.224;6.554;2023-06-24T08:46:27;102364.63;;;31.80;78.77
72896;BME280;61036;53.224;6.554;2023-06-24T08:48:59;102370.09;;;30.82;82.96
72896;BME280;61036;53.224;6.554;2023-06-24T08:51:29;102364.88;;;30.52;82.36
72896;BME280;61036;53.224;6.554;2023-06-24T08:53:57;102369.78;;;29.60;84.94
72896;BME280;61036;53.224;6.554;2023-06-24T08:56:23;102374.75;;;30.68;81.47
72896;BME280;61036;53.224;6.554;2023-06-24T08:58:50;102369.34;;;30.46;80.92
72896;BME280;61036;53.224;6.554;2023-06-24T09:01:17;102377.50;;;30.48;81.82
72896;BME280;61036;53.224;6.554;2023-06-24T09:03:42;102374.63;;;30.21;81.19
72896;BME280;61036;53.224;6.554;2023-06-24T09:06:08;102377.34;;;30.76;79.77
72896;BME280;61036;53.224;6.554;2023-06-24T09:08:36;102375.16;;;30.45;81.37
72896;BME280;61036;53.224;6.554;2023-06-24T09:11:08;102354.22;;;32.20;77.48
72896;BME280;61036;53.224;6.554;2023-06-24T09:13:36;102372.03;;;30.94;82.38
72896;BME280;61036;53.224;6.554;2023-06-24T09:16:13;102359.16;;;31.33;78.47
72896;BME280;61036;53.224;6.554;2023-06-24T09:18:47;102369.66;;;30.78;82.05
72896;BME280;61036;53.224;6.554;2023-06-24T09:21:13;102364.88;;;30.65;81.13
72896;BME280;61036;53.224;6.554;2023-06-24T09:23:39;102370.06;;;30.75;82.31
72896;BME280;61036;53.224;6.554;2023-06-24T09:26:09;102360.56;;;30.43;82.65
72896;BME280;61036;53.224;6.554;2023-06-24T09:28:38;102357.00;;;31.22;81.50
72896;BME280;61036;53.224;6.554;2023-06-24T09:31:08;102361.94;;;31.47;78.93
72896;BME280;61036;53.224;6.554;2023-06-24T09:33:34;102349.91;;;31.59;78.47
72896;BME280;61036;53.224;6.554;2023-06-24T09:36:02;102352.81;;;32.74;73.71
72896;BME280;61036;53.224;6.554;2023-06-24T09:38:35;102349.53;;;33.09;73.58
72896;BME280;61036;53.224;6.554;2023-06-24T09:41:03;102341.97;;;31.50;75.99
72896;BME280;61036;53.224;6.554;2023-06-24T09:43:37;102340.94;;;32.79;74.44
72896;BME280;61036;53.224;6.554;2023-06-24T09:46:06;102337.66;;;31.67;81.38
72896;BME280;61036;53.224;6.554;2023-06-24T09:48:35;102336.16;;;32.23;76.39
72896;BME280;61036;53.224;6.554;2023-06-24T09:51:03;102344.97;;;32.20;74.07
72896;BME280;61036;53.224;6.554;2023-06-24T09:53:33;102340.66;;;33.37;70.21
72896;BME280;61036;53.224;6.554;2023-06-24T09:56:00;102345.56;;;32.28;72.77
72896;BME280;61036;53.224;6.554;2023-06-24T09:58:28;102339.28;;;31.88;75.91
72896;BME280;61036;53.224;6.554;2023-06-24T10:00:57;102336.78;;;31.66;77.38
72896;BME280;61036;53.224;6.554;2023-06-24T10:03:27;102330.03;;;33.28;69.24
72896;BME280;61036;53.224;6.554;2023-06-24T10:05:53;102336.81;;;32.18;69.55
72896;BME280;61036;53.224;6.554;2023-06-24T10:08:19;102333.69;;;32.46;75.88
72896;BME280;61036;53.224;6.554;2023-06-24T10:10:46;102336.59;;;32.58;70.72
72896;BME280;61036;53.224;6.554;2023-06-24T10:13:11;102333.25;;;32.49;70.30
72896;BME280;61036;53.224;6.554;2023-06-24T10:15:37;102330.22;;;33.08;66.23
72896;BME280;61036;53.224;6.554;2023-06-24T10:18:03;102326.81;;;33.42;67.60
72896;BME280;61036;53.224;6.554;2023-06-24T10:20:49;102327.63;;;33.50;68.35
72896;BME280;61036;53.224;6.554;2023-06-24T10:23:14;102332.63;;;33.04;65.34
72896;BME280;61036;53.224;6.554;2023-06-24T10:25:40;102328.56;;;32.93;68.09
72896;BME280;61036;53.224;6.554;2023-06-24T10:28:06;102322.19;;;32.86;68.38
72896;BME280;61036;53.224;6.554;2023-06-24T10:30:31;102322.03;;;33.50;66.06
72896;BME280;61036;53.224;6.554;2023-06-24T10:32:58;102327.50;;;33.63;63.69
72896;BME280;61036;53.224;6.554;2023-06-24T10:35:26;102320.66;;;33.59;66.33
72896;BME280;61036;53.224;6.554;2023-06-24T10:38:00;102317.19;;;33.93;67.89
72896;BME280;61036;53.224;6.554;2023-06-24T10:40:53;102321.50;;;33.59;63.57
72896;BME280;61036;53.224;6.554;2023-06-24T10:43:28;102315.47;;;32.94;70.07
72896;BME280;61036;53.224;6.554;2023-06-24T10:45:58;102331.44;;;31.72;71.86
72896;BME280;61036;53.224;6.554;2023-06-24T10:48:27;102320.44;;;31.77;70.56
72896;BME280;61036;53.224;6.554;2023-06-24T10:50:52;102322.00;;;32.56;72.19
72896;BME280;61036;53.224;6.554;2023-06-24T10:53:18;102315.69;;;32.67;74.14
72896;BME280;61036;53.224;6.554;2023-06-24T10:55:44;102304.41;;;33.49;68.00
72896;BME280;61036;53.224;6.554;2023-06-24T10:58:12;102301.34;;;33.32;68.69
72896;BME280;61036;53.224;6.554;2023-06-24T11:00:40;102308.69;;;32.20;71.21
72896;BME280;61036;53.224;6.554;2023-06-24T11:05:39;102309.41;;;33.04;69.82
72896;BME280;61036;53.224;6.554;2023-06-24T11:08:06;102307.72;;;32.71;67.10
72896;BME280;61036;53.224;6.554;2023-06-24T11:10:32;102314.63;;;31.85;73.94
72896;BME280;61036;53.224;6.554;2023-06-24T11:12:57;102302.19;;;33.58;70.01
72896;BME280;61036;53.224;6.554;2023-06-24T11:15:29;102303.22;;;32.95;69.62
72896;BME280;61036;53.224;6.554;2023-06-24T11:17:55;102305.13;;;33.01;70.72
72896;BME280;61036;53.224;6.554;2023-06-24T11:20:20;102307.94;;;34.11;70.36
72896;BME280;61036;53.224;6.554;2023-06-24T11:22:46;102294.13;;;34.28;63.55
72896;BME280;61036;53.224;6.554;2023-06-24T11:25:16;102301.19;;;33.45;71.30
72896;BME280;61036;53.224;6.554;2023-06-24T11:27:42;102296.22;;;33.47;70.42
72896;BME280;61036;53.224;6.554;2023-06-24T11:30:08;102297.16;;;32.41;74.57
72896;BME280;61036;53.224;6.554;2023-06-24T11:32:38;102289.75;;;31.83;70.75
72896;BME280;61036;53.224;6.554;2023-06-24T11:35:05;102290.38;;;32.62;74.33
72896;BME280;61036;53.224;6.554;2023-06-24T11:37:32;102287.53;;;31.47;79.04
72896;BME280;61036;53.224;6.554;2023-06-24T11:42:30;102280.69;;;32.65;76.11
72896;BME280;61036;53.224;6.554;2023-06-24T11:45:04;102286.81;;;33.23;71.80
72896;BME280;61036;53.224;6.554;2023-06-24T11:47:38;102292.34;;;34.04;69.26
72896;BME280;61036;53.224;6.554;2023-06-24T11:50:06;102291.03;;;34.06;69.92
72896;BME280;61036;53.224;6.554;2023-06-24T11:52:42;102293.63;;;32.84;73.14
72896;BME280;61036;53.224;6.554;2023-06-24T11:55:22;102289.69;;;31.97;73.79
72896;BME280;61036;53.224;6.554;2023-06-24T11:58:02;102280.91;;;32.63;71.91
72896;BME280;61036;53.224;6.554;2023-06-24T12:00:36;102277.69;;;33.72;63.28
72896;BME280;61036;53.224;6.554;2023-06-24T12:03:04;102277.28;;;31.93;64.79
72896;BME280;61036;53.224;6.554;2023-06-24T12:05:32;102281.47;;;33.40;67.61
72896;BME280;61036;53.224;6.554;2023-06-24T12:08:05;102281.06;;;34.10;58.58
72896;BME280;61036;53.224;6.554;2023-06-24T12:10:32;102279.81;;;33.58;63.99
72896;BME280;61036;53.224;6.554;2023-06-24T12:12:59;102278.00;;;33.63;62.83
72896;BME280;61036;53.224;6.554;2023-06-24T12:15:26;102273.53;;;33.00;64.32
72896;BME280;61036;53.224;6.554;2023-06-24T12:17:52;102275.56;;;33.85;59.07
72896;BME280;61036;53.224;6.554;2023-06-24T12:20:18;102279.38;;;33.73;61.40
72896;BME280;61036;53.224;6.554;2023-06-24T12:22:48;102294.59;;;34.55;60.61
72896;BME280;61036;53.224;6.554;2023-06-24T12:25:14;102281.91;;;32.94;63.12
72896;BME280;61036;53.224;6.554;2023-06-24T12:27:42;102281.31;;;34.21;64.84
72896;BME280;61036;53.224;6.554;2023-06-24T12:30:08;102281.78;;;33.32;61.69
72896;BME280;61036;53.224;6.554;2023-06-24T12:32:34;102287.81;;;32.86;66.98
72896;BME280;61036;53.224;6.554;2023-06-24T12:35:00;102287.53;;;33.37;61.55
72896;BME280;61036;53.224;6.554;2023-06-24T12:37:29;102283.66;;;33.38;63.08
72896;BME280;61036;53.224;6.554;2023-06-24T12:39:56;102277.59;;;33.78;62.66
72896;BME280;61036;53.224;6.554;2023-06-24T12:42:21;102278.28;;;32.93;60.96
72896;BME280;61036;53.224;6.554;2023-06-24T12:44:47;102286.06;;;34.20;59.65
72896;BME280;61036;53.224;6.554;2023-06-24T12:47:14;102276.53;;;34.40;62.38
72896;BME280;61036;53.224;6.554;2023-06-24T12:49:39;102275.25;;;33.20;63.50
72896;BME280;61036;53.224;6.554;2023-06-24T12:52:05;102284.78;;;32.87;63.43
72896;BME280;61036;53.224;6.554;2023-06-24T12:54:31;102274.31;;;33.44;65.85
72896;BME280;61036;53.224;6.554;2023-06-24T12:56:56;102272.81;;;32.55;68.79
72896;BME280;61036;53.224;6.554;2023-06-24T12:59:22;102275.34;;;31.93;71.94